createdAt,value
2023-05-19T00:02:27.631Z,11.01
2023-05-19T00:05:03.047Z,10.85
2023-05-19T00:07:39.184Z,10.83
2023-05-19T00:10:15.604Z,10.88
2023-05-19T00:12:51.881Z,10.72
2023-05-19T00:15:28.334Z,10.62
2023-05-19T00:18:02.074Z,10.59
2023-05-19T00:20:35.467Z,10.66
2023-05-19T00:23:08.769Z,10.62
2023-05-19T00:25:42.690Z,10.62
2023-05-19T00:28:16.133Z,10.59
2023-05-19T00:30:49.710Z,10.72
2023-05-19T00:33:23.140Z,10.75
2023-05-19T00:35:56.452Z,10.76
2023-05-19T00:38:29.732Z,10.69
2023-05-19T00:41:04.317Z,10.68
2023-05-19T00:43:37.676Z,10.54
2023-05-19T00:46:11.778Z,10.55
2023-05-19T00:48:45.644Z,10.56
2023-05-19T00:51:20.763Z,10.53
2023-05-19T00:53:54.205Z,10.48
2023-05-19T00:56:27.901Z,10.44
2023-05-19T00:59:01.819Z,10.25
2023-05-19T01:01:35.243Z,10.31
2023-05-19T01:04:10.528Z,10.26
2023-05-19T01:06:44.686Z,10.29
2023-05-19T01:09:18.409Z,10.34
2023-05-19T01:11:51.429Z,10.39
2023-05-19T01:14:25.855Z,10.40
2023-05-19T01:17:09.903Z,10.37
2023-05-19T01:20:06.577Z,10.31
2023-05-19T01:23:28.803Z,10.21
2023-05-19T01:26:27.957Z,10.30
2023-05-19T01:29:29.090Z,10.27
2023-05-19T01:32:05.857Z,10.26
2023-05-19T01:34:43.639Z,10.23
2023-05-19T01:37:18.736Z,10.27
2023-05-19T01:39:53.557Z,10.23
2023-05-19T01:42:28.297Z,10.14
2023-05-19T01:45:02.644Z,10.14
2023-05-19T01:47:38.197Z,10.08
2023-05-19T01:50:14.553Z,10.09
2023-05-19T01:52:48.067Z,10.11
2023-05-19T01:55:23.244Z,10.17
2023-05-19T01:58:14.578Z,10.04
2023-05-19T02:01:04.866Z,9.94
2023-05-19T02:04:04.980Z,9.97
2023-05-19T02:06:47.290Z,9.95
2023-05-19T02:09:24.651Z,9.98
2023-05-19T02:12:05.461Z,9.97
2023-05-19T02:14:46.394Z,10.01
2023-05-19T02:17:21.513Z,9.98
2023-05-19T02:19:54.565Z,9.93
2023-05-19T02:22:27.964Z,9.85
2023-05-19T02:25:01.417Z,9.86
2023-05-19T02:27:35.064Z,9.86
2023-05-19T02:30:10.254Z,9.78
2023-05-19T02:32:46.867Z,9.81
2023-05-19T02:35:21.027Z,9.75
2023-05-19T02:37:55.105Z,9.77
2023-05-19T02:40:28.586Z,9.79
2023-05-19T02:43:01.979Z,9.66
2023-05-19T02:45:35.246Z,9.64
2023-05-19T02:48:09.756Z,9.59
2023-05-19T02:50:43.007Z,9.63
2023-05-19T02:53:16.302Z,9.62
2023-05-19T02:55:49.693Z,9.58
2023-05-19T02:58:22.984Z,9.61
2023-05-19T03:00:56.275Z,9.51
2023-05-19T03:03:29.683Z,9.54
2023-05-19T03:06:03.074Z,9.49
2023-05-19T03:08:36.628Z,9.42
2023-05-19T03:11:10.325Z,9.41
2023-05-19T03:13:43.587Z,9.38
2023-05-19T03:16:16.888Z,9.30
2023-05-19T03:18:51.260Z,9.24
2023-05-19T03:21:24.625Z,9.24
2023-05-19T03:23:58.045Z,9.30
2023-05-19T03:26:31.512Z,9.24
2023-05-19T03:29:05.103Z,9.30
2023-05-19T03:31:38.406Z,9.26
2023-05-19T03:34:11.658Z,9.25
2023-05-19T03:36:45.059Z,9.32
2023-05-19T03:39:18.714Z,9.22
2023-05-19T03:41:52.019Z,9.18
2023-05-19T03:44:25.279Z,9.18
2023-05-19T03:46:58.615Z,9.20
2023-05-19T03:49:31.959Z,9.22
2023-05-19T03:52:05.291Z,9.14
2023-05-19T03:54:39.945Z,9.14
2023-05-19T03:57:14.993Z,9.00
2023-05-19T03:59:48.514Z,9.04
2023-05-19T04:02:21.940Z,9.02
2023-05-19T04:04:55.983Z,9.04
2023-05-19T04:07:29.374Z,9.01
2023-05-19T04:10:03.424Z,8.95
2023-05-19T04:12:37.132Z,9.00
2023-05-19T04:15:14.490Z,9.03
2023-05-19T04:17:48.545Z,9.03
2023-05-19T04:20:22.080Z,9.01
2023-05-19T04:22:55.096Z,9.04
2023-05-19T04:25:28.429Z,9.09
2023-05-19T04:28:03.002Z,9.12
2023-05-19T04:30:37.016Z,9.09
2023-05-19T04:33:10.816Z,9.12
2023-05-19T04:35:44.389Z,9.13
2023-05-19T04:38:18.881Z,9.09
2023-05-19T04:40:52.473Z,9.10
2023-05-19T04:43:27.265Z,8.98
2023-05-19T04:46:02.034Z,9.04
2023-05-19T04:48:35.399Z,9.12
2023-05-19T04:51:09.298Z,9.13
2023-05-19T04:53:42.290Z,9.18
2023-05-19T04:56:15.724Z,9.18
2023-05-19T04:58:49.402Z,9.18
2023-05-19T05:01:25.884Z,9.18
2023-05-19T05:04:02.238Z,9.22
2023-05-19T05:06:38.308Z,9.22
2023-05-19T05:09:11.509Z,9.22
2023-05-19T05:11:47.978Z,9.21
2023-05-19T05:14:23.438Z,9.21
2023-05-19T05:16:57.913Z,9.28
2023-05-19T05:19:33.549Z,9.29
2023-05-19T05:22:08.729Z,9.29
2023-05-19T05:24:42.399Z,9.22
2023-05-19T05:27:15.731Z,9.23
2023-05-19T05:29:49.805Z,9.22
2023-05-19T05:32:25.729Z,9.25
2023-05-19T05:34:59.460Z,9.30
2023-05-19T05:37:33.380Z,9.32
2023-05-19T05:40:08.011Z,9.37
2023-05-19T05:42:41.355Z,9.43
2023-05-19T05:45:16.760Z,9.43
2023-05-19T05:47:53.395Z,9.49
2023-05-19T05:50:29.280Z,9.54
2023-05-19T05:53:04.637Z,9.58
2023-05-19T05:55:39.956Z,9.61
2023-05-19T05:58:15.514Z,9.67
2023-05-19T06:00:49.263Z,9.72
2023-05-19T06:03:24.404Z,9.75
2023-05-19T06:05:58.146Z,9.78
2023-05-19T06:08:31.837Z,9.85
2023-05-19T06:11:08.382Z,9.90
2023-05-19T06:13:42.382Z,9.97
2023-05-19T06:16:15.721Z,9.98
2023-05-19T06:18:49.267Z,10.03
2023-05-19T06:21:22.769Z,10.06
2023-05-19T06:23:56.356Z,10.12
2023-05-19T06:26:29.455Z,10.15
2023-05-19T06:29:02.767Z,10.14
2023-05-19T06:31:36.064Z,10.14
2023-05-19T06:34:12.270Z,10.15
2023-05-19T06:36:45.964Z,10.17
2023-05-19T06:39:19.254Z,10.22
2023-05-19T06:41:52.544Z,10.18
2023-05-19T06:44:26.015Z,10.22
2023-05-19T06:46:59.301Z,10.29
2023-05-19T06:49:32.918Z,10.39
2023-05-19T06:52:06.653Z,10.46
2023-05-19T06:54:39.964Z,10.51
2023-05-19T06:57:13.077Z,10.61
2023-05-19T06:59:46.707Z,10.66
2023-05-19T07:02:19.999Z,10.69
2023-05-19T07:04:53.991Z,10.82
2023-05-19T07:07:27.733Z,10.87
2023-05-19T07:10:01.308Z,10.97
2023-05-19T07:12:34.475Z,11.03
2023-05-19T07:15:09.963Z,11.11
2023-05-19T07:17:43.433Z,11.18
2023-05-19T07:20:17.940Z,11.14
2023-05-19T07:22:51.228Z,11.25
2023-05-19T07:25:26.048Z,11.32
2023-05-19T07:27:59.059Z,11.42
2023-05-19T07:30:33.615Z,11.51
2023-05-19T07:33:08.248Z,11.53
2023-05-19T07:35:41.704Z,11.69
2023-05-19T07:38:15.012Z,11.71
2023-05-19T07:40:48.283Z,11.87
2023-05-19T07:43:21.883Z,11.89
2023-05-19T07:45:56.393Z,11.99
2023-05-19T07:48:30.248Z,12.03
2023-05-19T07:51:03.538Z,12.08
2023-05-19T07:53:36.883Z,12.14
2023-05-19T07:56:10.649Z,12.26
2023-05-19T07:58:43.660Z,12.40
2023-05-19T08:01:17.037Z,12.43
2023-05-19T08:03:50.475Z,12.51
2023-05-19T08:06:25.204Z,12.64
2023-05-19T08:08:58.851Z,12.71
2023-05-19T08:11:32.169Z,12.82
2023-05-19T08:14:05.232Z,12.85
2023-05-19T08:16:38.730Z,12.96
2023-05-19T08:19:12.484Z,13.07
2023-05-19T08:21:45.817Z,13.13
2023-05-19T08:24:19.182Z,13.20
2023-05-19T08:26:52.451Z,13.39
2023-05-19T08:29:25.582Z,13.45
2023-05-19T08:31:59.402Z,13.71
2023-05-19T08:34:33.231Z,13.77
2023-05-19T08:37:07.033Z,13.82
2023-05-19T08:39:40.739Z,13.91
2023-05-19T08:42:14.242Z,14.01
2023-05-19T08:44:47.495Z,14.02
2023-05-19T08:47:20.911Z,14.16
2023-05-19T08:50:04.959Z,14.40
2023-05-19T08:52:57.807Z,14.59
2023-05-19T08:55:42.907Z,14.72
2023-05-19T08:58:20.336Z,14.79
2023-05-19T09:00:54.665Z,14.83
2023-05-19T09:03:29.369Z,15.07
2023-05-19T09:06:05.095Z,15.11
2023-05-19T09:08:38.461Z,15.16
2023-05-19T09:11:13.130Z,15.32
2023-05-19T09:13:46.987Z,15.34
2023-05-19T09:16:20.902Z,15.30
2023-05-19T09:19:01.623Z,15.35
2023-05-19T09:21:37.440Z,15.54
2023-05-19T09:24:12.812Z,15.64
2023-05-19T09:26:46.705Z,15.71
2023-05-19T09:29:21.326Z,15.64
2023-05-19T09:32:00.619Z,15.64
2023-05-19T09:34:34.510Z,15.64
2023-05-19T09:37:08.091Z,15.71
2023-05-19T09:39:41.745Z,15.89
2023-05-19T09:42:17.097Z,16.23
2023-05-19T09:44:51.585Z,16.35
2023-05-19T09:47:25.476Z,16.58
2023-05-19T09:49:59.844Z,16.60
2023-05-19T09:52:35.781Z,16.71
2023-05-19T09:55:12.940Z,16.93
2023-05-19T09:57:48.000Z,17.11
2023-05-19T10:00:24.562Z,17.22
2023-05-19T10:02:59.544Z,17.46
2023-05-19T10:05:35.479Z,17.51
2023-05-19T10:08:12.958Z,17.70
2023-05-19T10:10:49.318Z,17.74
2023-05-19T10:13:25.051Z,17.69
2023-05-19T10:16:00.299Z,17.67
2023-05-19T10:18:39.111Z,17.98
2023-05-19T10:21:14.898Z,17.98
2023-05-19T10:23:48.186Z,17.93
2023-05-19T10:26:23.663Z,17.77
2023-05-19T10:28:59.549Z,17.84
2023-05-19T10:31:35.070Z,18.11
2023-05-19T10:34:34.469Z,18.33
2023-05-19T10:37:20.583Z,18.59
2023-05-19T10:39:56.585Z,18.77
2023-05-19T10:42:46.825Z,18.85
2023-05-19T10:45:28.113Z,18.82
2023-05-19T10:48:01.920Z,18.62
2023-05-19T10:50:44.335Z,18.67
2023-05-19T10:53:23.099Z,18.75
2023-05-19T10:56:03.467Z,18.91
2023-05-19T10:58:59.014Z,19.02
2023-05-19T11:01:39.448Z,19.28
2023-05-19T11:04:15.939Z,19.42
2023-05-19T11:06:57.811Z,19.44
2023-05-19T11:09:40.053Z,19.50
2023-05-19T11:12:12.888Z,19.59
2023-05-19T11:14:46.275Z,19.58
2023-05-19T11:17:23.717Z,19.85
2023-05-19T11:20:04.582Z,19.94
2023-05-19T11:22:41.072Z,20.10
2023-05-19T11:25:19.128Z,20.32
2023-05-19T11:27:53.569Z,20.43
2023-05-19T11:30:27.327Z,20.57
2023-05-19T11:33:01.051Z,20.63
2023-05-19T11:35:37.440Z,20.78
2023-05-19T11:38:11.992Z,20.91
2023-05-19T11:40:49.707Z,21.12
2023-05-19T11:43:26.511Z,21.15
2023-05-19T11:46:00.866Z,21.01
2023-05-19T11:48:35.931Z,20.79
2023-05-19T11:51:11.648Z,20.85
2023-05-19T11:53:46.100Z,20.89
2023-05-19T11:56:19.356Z,20.79
2023-05-19T11:58:55.983Z,20.90
2023-05-19T12:01:31.902Z,21.04
2023-05-19T12:04:09.053Z,21.12
2023-05-19T12:06:42.397Z,20.92
2023-05-19T12:09:16.264Z,21.11
2023-05-19T12:11:50.729Z,21.24
2023-05-19T12:14:24.492Z,21.43
2023-05-19T12:16:58.197Z,21.61
2023-05-19T12:19:31.786Z,21.80
2023-05-19T12:22:06.199Z,21.89
2023-05-19T12:24:40.109Z,22.23
2023-05-19T12:27:19.386Z,22.12
2023-05-19T12:29:58.165Z,22.05
2023-05-19T12:32:34.461Z,21.96
2023-05-19T12:35:10.056Z,21.95
2023-05-19T12:37:49.095Z,21.95
2023-05-19T12:40:22.567Z,22.11
2023-05-19T12:42:59.763Z,22.37
2023-05-19T12:45:37.479Z,22.50
2023-05-19T12:48:17.019Z,22.32
2023-05-19T12:50:52.808Z,22.43
2023-05-19T12:53:29.581Z,22.33
2023-05-19T12:56:10.993Z,22.18
2023-05-19T12:58:45.891Z,22.13
2023-05-19T13:01:24.114Z,22.35
2023-05-19T13:03:58.029Z,22.41
2023-05-19T13:06:32.769Z,22.53
2023-05-19T13:09:07.182Z,22.57
2023-05-19T13:11:40.587Z,22.55
2023-05-19T13:14:17.132Z,22.80
2023-05-19T13:16:51.259Z,22.95
2023-05-19T13:19:26.205Z,23.27
2023-05-19T13:21:59.839Z,23.43
2023-05-19T13:24:33.410Z,23.46
2023-05-19T13:27:06.678Z,23.46
2023-05-19T13:29:41.443Z,23.47
2023-05-19T13:32:14.854Z,23.38
2023-05-19T13:34:48.940Z,23.18
2023-05-19T13:37:22.776Z,23.13
2023-05-19T13:39:57.652Z,23.06
2023-05-19T13:42:30.945Z,23.27
2023-05-19T13:45:04.437Z,23.23
2023-05-19T13:47:38.218Z,23.40
2023-05-19T13:50:13.759Z,23.41
2023-05-19T13:52:47.452Z,23.09
2023-05-19T13:55:21.391Z,22.79
2023-05-19T13:57:54.436Z,22.89
2023-05-19T14:00:28.433Z,22.48
2023-05-19T14:03:01.974Z,22.78
2023-05-19T14:05:35.811Z,23.02
2023-05-19T14:08:11.323Z,23.01
2023-05-19T14:10:44.683Z,22.79
2023-05-19T14:13:32.639Z,22.89
2023-05-19T14:16:09.772Z,23.10
2023-05-19T14:18:43.386Z,23.25
2023-05-19T14:21:16.746Z,23.55
2023-05-19T14:23:50.138Z,23.74
2023-05-19T14:26:24.829Z,23.63
2023-05-19T14:28:58.380Z,23.79
2023-05-19T14:31:33.663Z,23.53
2023-05-19T14:34:06.965Z,23.76
2023-05-19T14:36:40.337Z,23.73
2023-05-19T14:39:13.754Z,23.84
2023-05-19T14:41:47.161Z,24.02
2023-05-19T14:44:20.214Z,24.29
2023-05-19T14:46:53.506Z,23.86
2023-05-19T14:49:27.120Z,23.72
2023-05-19T14:52:00.458Z,23.46
2023-05-19T14:54:33.822Z,23.37
2023-05-19T14:57:08.074Z,23.19
2023-05-19T14:59:43.325Z,23.18
2023-05-19T15:02:16.618Z,23.17
2023-05-19T15:04:49.965Z,23.51
2023-05-19T15:07:24.577Z,23.41
2023-05-19T15:09:58.318Z,23.31
2023-05-19T15:12:31.711Z,23.08
2023-05-19T15:15:05.097Z,23.21
2023-05-19T15:17:38.424Z,23.35
2023-05-19T15:20:15.149Z,23.10
2023-05-19T15:22:48.545Z,23.15
2023-05-19T15:25:21.866Z,23.28
2023-05-19T15:27:55.379Z,23.36
2023-05-19T15:30:29.174Z,23.18
2023-05-19T15:33:02.506Z,23.19
2023-05-19T15:35:35.851Z,23.29
2023-05-19T15:38:09.166Z,23.65
2023-05-19T15:40:44.487Z,23.60
2023-05-19T15:43:17.901Z,23.62
2023-05-19T15:45:54.901Z,23.53
2023-05-19T15:48:29.006Z,23.35
2023-05-19T15:51:02.767Z,23.36
2023-05-19T15:53:36.356Z,23.35
2023-05-19T15:56:10.728Z,23.17
2023-05-19T15:58:44.235Z,22.72
2023-05-19T16:01:17.669Z,22.69
2023-05-19T16:03:51.599Z,22.73
2023-05-19T16:06:27.566Z,22.77
2023-05-19T16:09:01.231Z,22.71
2023-05-19T16:11:34.958Z,22.69
2023-05-19T16:14:08.176Z,22.44
2023-05-19T16:16:41.301Z,22.58
2023-05-19T16:19:14.941Z,22.22
2023-05-19T16:21:48.604Z,21.99
2023-05-19T16:24:22.122Z,22.17
2023-05-19T16:26:55.454Z,22.18
2023-05-19T16:29:28.793Z,22.22
2023-05-19T16:32:01.860Z,22.14
2023-05-19T16:34:35.583Z,21.87
2023-05-19T16:37:10.018Z,21.99
2023-05-19T16:39:43.734Z,22.03
2023-05-19T16:42:17.064Z,22.05
2023-05-19T16:44:50.351Z,21.89
2023-05-19T16:47:23.376Z,21.79
2023-05-19T16:49:56.751Z,21.77
2023-05-19T16:52:30.145Z,21.84
2023-05-19T16:55:03.535Z,21.67
2023-05-19T16:57:36.874Z,21.79
2023-05-19T17:00:14.276Z,21.66
2023-05-19T17:02:47.834Z,21.67
2023-05-19T17:05:21.250Z,21.69
2023-05-19T17:07:54.657Z,21.51
2023-05-19T17:10:28.104Z,21.50
2023-05-19T17:13:01.377Z,21.43
2023-05-19T17:15:34.935Z,21.47
2023-05-19T17:18:08.007Z,21.41
2023-05-19T17:20:41.646Z,21.33
2023-05-19T17:23:15.125Z,21.42
2023-05-19T17:25:48.496Z,21.34
2023-05-19T17:28:22.800Z,21.25
2023-05-19T17:30:56.106Z,21.13
2023-05-19T17:33:29.379Z,21.05
2023-05-19T17:36:05.326Z,20.88
2023-05-19T17:38:40.409Z,20.88
2023-05-19T17:41:14.280Z,20.89
2023-05-19T17:43:48.430Z,20.90
2023-05-19T17:46:21.747Z,20.79
2023-05-19T17:48:55.554Z,20.79
2023-05-19T17:51:32.080Z,20.65
2023-05-19T17:54:08.558Z,20.67
2023-05-19T17:56:48.234Z,20.71
2023-05-19T17:59:22.829Z,20.71
2023-05-19T18:01:58.236Z,20.71
2023-05-19T18:04:33.543Z,20.57
2023-05-19T18:07:09.985Z,20.49
2023-05-19T18:09:51.930Z,20.43
2023-05-19T18:12:25.356Z,20.45
2023-05-19T18:14:58.675Z,20.26
2023-05-19T18:17:31.971Z,20.30
2023-05-19T18:20:05.295Z,20.31
2023-05-19T18:22:38.670Z,20.33
2023-05-19T18:25:14.359Z,20.25
2023-05-19T18:27:48.016Z,20.12
2023-05-19T18:30:21.979Z,19.98
2023-05-19T18:32:55.402Z,20.03
2023-05-19T18:35:28.434Z,19.99
2023-05-19T18:38:02.403Z,19.90
2023-05-19T18:40:35.955Z,19.97
2023-05-19T18:43:09.481Z,19.92
2023-05-19T18:45:43.241Z,19.86
2023-05-19T18:48:16.537Z,19.76
2023-05-19T18:50:49.817Z,19.66
2023-05-19T18:53:23.662Z,19.52
2023-05-19T18:55:57.019Z,19.50
2023-05-19T18:58:30.415Z,19.51
2023-05-19T19:01:03.724Z,19.47
2023-05-19T19:03:37.040Z,19.38
2023-05-19T19:06:10.986Z,19.31
2023-05-19T19:08:44.651Z,19.26
2023-05-19T19:11:18.120Z,19.27
2023-05-19T19:13:55.364Z,19.12
2023-05-19T19:16:29.058Z,19.04
2023-05-19T19:19:02.407Z,18.94
2023-05-19T19:21:35.638Z,18.91
2023-05-19T19:24:10.118Z,18.80
2023-05-19T19:26:43.468Z,18.69
2023-05-19T19:29:18.144Z,18.68
2023-05-19T19:31:51.775Z,18.57
2023-05-19T19:34:25.079Z,18.53
2023-05-19T19:36:58.170Z,18.48
2023-05-19T19:39:31.464Z,18.49
2023-05-19T19:42:04.956Z,18.45
2023-05-19T19:44:38.360Z,18.46
2023-05-19T19:47:11.979Z,18.36
2023-05-19T19:49:46.082Z,18.25
2023-05-19T19:52:20.302Z,18.10
2023-05-19T19:54:53.642Z,18.03
2023-05-19T19:57:29.123Z,18.03
2023-05-19T20:00:08.289Z,18.03
2023-05-19T20:02:55.833Z,17.89
2023-05-19T20:05:38.013Z,17.93
2023-05-19T20:08:11.497Z,17.83
2023-05-19T20:10:46.763Z,17.77
2023-05-19T20:13:20.702Z,17.69
2023-05-19T20:15:54.061Z,17.50
2023-05-19T20:18:29.632Z,17.60
2023-05-19T20:21:02.994Z,17.53
2023-05-19T20:23:38.782Z,17.50
2023-05-19T20:26:13.392Z,17.51
2023-05-19T20:28:47.164Z,17.41
2023-05-19T20:31:21.400Z,17.27
2023-05-19T20:33:54.751Z,17.21
2023-05-19T20:36:28.135Z,17.09
2023-05-19T20:39:01.296Z,17.16
2023-05-19T20:41:34.541Z,17.13
2023-05-19T20:44:08.476Z,17.06
2023-05-19T20:46:42.130Z,17.00
2023-05-19T20:49:15.552Z,16.94
2023-05-19T20:51:48.974Z,16.90
2023-05-19T20:54:22.180Z,16.84
2023-05-19T20:56:55.972Z,16.77
2023-05-19T20:59:29.293Z,16.80
2023-05-19T21:02:02.707Z,16.76
2023-05-19T21:04:37.241Z,16.70
2023-05-19T21:07:11.130Z,16.67
2023-05-19T21:09:46.515Z,16.52
2023-05-19T21:12:23.748Z,16.50
2023-05-19T21:14:57.116Z,16.45
2023-05-19T21:17:30.415Z,16.44
2023-05-19T21:20:04.140Z,16.23
2023-05-19T21:22:37.526Z,16.15
2023-05-19T21:25:12.086Z,16.26
2023-05-19T21:27:46.608Z,16.27
2023-05-19T21:30:20.286Z,16.18
2023-05-19T21:32:53.990Z,16.04
2023-05-19T21:35:27.594Z,16.01
2023-05-19T21:38:11.941Z,15.99
2023-05-19T21:40:51.666Z,15.92
2023-05-19T21:43:25.045Z,15.90
2023-05-19T21:45:58.516Z,15.85
2023-05-19T21:48:32.991Z,15.81
2023-05-19T21:51:07.305Z,15.73
2023-05-19T21:53:40.554Z,15.83
2023-05-19T21:56:14.426Z,15.78
2023-05-19T21:58:47.857Z,15.81
2023-05-19T22:01:22.215Z,15.66
2023-05-19T22:03:55.937Z,15.64
2023-05-19T22:06:29.753Z,15.54
2023-05-19T22:09:03.551Z,15.49
2023-05-19T22:11:37.350Z,15.50
2023-05-19T22:14:10.696Z,15.55
2023-05-19T22:16:44.132Z,15.47
2023-05-19T22:19:18.278Z,15.40
2023-05-19T22:21:58.437Z,15.28
2023-05-19T22:24:35.896Z,15.31
2023-05-19T22:27:10.938Z,15.27
2023-05-19T22:29:44.539Z,15.27
2023-05-19T22:32:19.394Z,15.28
2023-05-19T22:34:52.767Z,15.21
2023-05-19T22:37:28.878Z,15.23
2023-05-19T22:40:02.387Z,15.13
2023-05-19T22:42:35.371Z,15.15
2023-05-19T22:45:10.696Z,15.14
2023-05-19T22:47:44.092Z,15.02
2023-05-19T22:50:17.761Z,15.11
2023-05-19T22:52:51.047Z,15.07
2023-05-19T22:55:24.284Z,15.03
2023-05-19T22:57:57.511Z,14.89
2023-05-19T23:00:30.889Z,14.91
2023-05-19T23:03:04.658Z,14.83
2023-05-19T23:05:37.998Z,14.75
2023-05-19T23:08:12.230Z,14.82
2023-05-19T23:10:45.530Z,14.73
2023-05-19T23:13:20.065Z,14.66
2023-05-19T23:15:53.935Z,14.71
2023-05-19T23:18:27.350Z,14.65
2023-05-19T23:21:00.664Z,14.58
2023-05-19T23:23:35.855Z,14.52
2023-05-19T23:26:09.145Z,14.55
2023-05-19T23:28:42.665Z,14.45
2023-05-19T23:31:15.976Z,14.48
2023-05-19T23:33:49.429Z,14.31
2023-05-19T23:36:23.429Z,14.32
2023-05-19T23:38:56.696Z,14.35
2023-05-19T23:41:29.941Z,14.38
2023-05-19T23:44:03.159Z,14.36
2023-05-19T23:46:36.523Z,14.30
2023-05-19T23:49:10.198Z,14.31
2023-05-19T23:51:43.499Z,14.30
2023-05-19T23:54:16.741Z,14.31
2023-05-19T23:56:50.014Z,14.27
2023-05-19T23:59:23.215Z,14.26
